sensor_id;sensor_type;location;lat;lon;timestamp;P1;durP1;ratioP1;P2;durP2;ratioP2
54123;SDS011;55741;53.252;5.788;2024-02-14T00:00:15;18.60;;;13.23;;
54123;SDS011;55741;53.252;5.788;2024-02-14T00:02:43;21.85;;;12.63;;
54123;SDS011;55741;53.252;5.788;2024-02-14T00:05:11;20.17;;;14.45;;
54123;SDS011;55741;53.252;5.788;2024-02-14T00:07:38;18.52;;;13.32;;
54123;SDS011;55741;53.252;5.788;2024-02-14T00:10:06;19.35;;;13.70;;
54123;SDS011;55741;53.252;5.788;2024-02-14T00:12:35;18.52;;;13.55;;
54123;SDS011;55741;53.252;5.788;2024-02-14T00:15:03;17.58;;;12.80;;
54123;SDS011;55741;53.252;5.788;2024-02-14T00:17:33;18.35;;;13.68;;
54123;SDS011;55741;53.252;5.788;2024-02-14T00:20:01;19.73;;;13.13;;
54123;SDS011;55741;53.252;5.788;2024-02-14T00:22:30;17.17;;;13.63;;
54123;SDS011;55741;53.252;5.788;2024-02-14T00:24:58;16.83;;;12.13;;
54123;SDS011;55741;53.252;5.788;2024-02-14T00:27:25;17.88;;;13.15;;
54123;SDS011;55741;53.252;5.788;2024-02-14T00:29:54;14.82;;;12.32;;
54123;SDS011;55741;53.252;5.788;2024-02-14T00:32:22;15.25;;;12.60;;
54123;SDS011;55741;53.252;5.788;2024-02-14T00:34:49;16.27;;;12.23;;
54123;SDS011;55741;53.252;5.788;2024-02-14T00:37:18;14.90;;;12.43;;
54123;SDS011;55741;53.252;5.788;2024-02-14T00:39:46;14.63;;;11.05;;
54123;SDS011;55741;53.252;5.788;2024-02-14T00:42:16;15.65;;;12.45;;
54123;SDS011;55741;53.252;5.788;2024-02-14T00:44:44;17.17;;;13.13;;
54123;SDS011;55741;53.252;5.788;2024-02-14T00:47:11;16.63;;;12.65;;
54123;SDS011;55741;53.252;5.788;2024-02-14T00:49:39;16.60;;;12.98;;
54123;SDS011;55741;53.252;5.788;2024-02-14T00:52:06;15.88;;;12.45;;
54123;SDS011;55741;53.252;5.788;2024-02-14T00:54:34;16.50;;;13.60;;
54123;SDS011;55741;53.252;5.788;2024-02-14T00:57:02;14.43;;;12.27;;
54123;SDS011;55741;53.252;5.788;2024-02-14T00:59:29;17.40;;;12.10;;
54123;SDS011;55741;53.252;5.788;2024-02-14T01:01:57;15.18;;;12.82;;
54123;SDS011;55741;53.252;5.788;2024-02-14T01:04:24;16.52;;;12.70;;
54123;SDS011;55741;53.252;5.788;2024-02-14T01:06:52;13.63;;;12.18;;
54123;SDS011;55741;53.252;5.788;2024-02-14T01:09:19;15.60;;;12.23;;
54123;SDS011;55741;53.252;5.788;2024-02-14T01:11:47;14.20;;;12.43;;
54123;SDS011;55741;53.252;5.788;2024-02-14T01:14:15;17.95;;;13.73;;
54123;SDS011;55741;53.252;5.788;2024-02-14T01:16:43;14.57;;;12.80;;
54123;SDS011;55741;53.252;5.788;2024-02-14T01:19:11;17.15;;;13.00;;
54123;SDS011;55741;53.252;5.788;2024-02-14T01:21:40;15.65;;;13.27;;
54123;SDS011;55741;53.252;5.788;2024-02-14T01:24:07;14.75;;;12.90;;
54123;SDS011;55741;53.252;5.788;2024-02-14T01:26:35;18.80;;;13.98;;
54123;SDS011;55741;53.252;5.788;2024-02-14T01:29:03;17.70;;;14.52;;
54123;SDS011;55741;53.252;5.788;2024-02-14T01:31:32;17.73;;;14.00;;
54123;SDS011;55741;53.252;5.788;2024-02-14T01:34:01;17.48;;;14.68;;
54123;SDS011;55741;53.252;5.788;2024-02-14T01:36:28;21.48;;;14.55;;
54123;SDS011;55741;53.252;5.788;2024-02-14T01:38:56;17.80;;;14.50;;
54123;SDS011;55741;53.252;5.788;2024-02-14T01:41:24;17.60;;;14.35;;
54123;SDS011;55741;53.252;5.788;2024-02-14T01:43:51;17.58;;;14.32;;
54123;SDS011;55741;53.252;5.788;2024-02-14T01:46:19;15.43;;;13.60;;
54123;SDS011;55741;53.252;5.788;2024-02-14T01:48:47;18.20;;;14.73;;
54123;SDS011;55741;53.252;5.788;2024-02-14T01:51:15;17.38;;;14.85;;
54123;SDS011;55741;53.252;5.788;2024-02-14T01:53:46;16.25;;;13.23;;
54123;SDS011;55741;53.252;5.788;2024-02-14T01:56:14;15.90;;;13.30;;
54123;SDS011;55741;53.252;5.788;2024-02-14T01:58:42;15.68;;;13.52;;
54123;SDS011;55741;53.252;5.788;2024-02-14T02:01:11;17.38;;;14.60;;
54123;SDS011;55741;53.252;5.788;2024-02-14T02:03:39;16.35;;;13.73;;
54123;SDS011;55741;53.252;5.788;2024-02-14T02:06:07;16.10;;;12.65;;
54123;SDS011;55741;53.252;5.788;2024-02-14T02:08:34;16.77;;;14.02;;
54123;SDS011;55741;53.252;5.788;2024-02-14T02:11:02;15.38;;;12.75;;
54123;SDS011;55741;53.252;5.788;2024-02-14T02:13:30;18.08;;;13.90;;
54123;SDS011;55741;53.252;5.788;2024-02-14T02:15:58;14.98;;;13.00;;
54123;SDS011;55741;53.252;5.788;2024-02-14T02:18:25;16.38;;;13.60;;
54123;SDS011;55741;53.252;5.788;2024-02-14T02:20:53;14.25;;;12.35;;
54123;SDS011;55741;53.252;5.788;2024-02-14T02:23:20;18.83;;;14.65;;
54123;SDS011;55741;53.252;5.788;2024-02-14T02:25:48;15.20;;;12.50;;
54123;SDS011;55741;53.252;5.788;2024-02-14T02:28:17;18.75;;;14.93;;
54123;SDS011;55741;53.252;5.788;2024-02-14T02:30:44;19.63;;;15.80;;
54123;SDS011;55741;53.252;5.788;2024-02-14T02:33:13;17.88;;;14.95;;
54123;SDS011;55741;53.252;5.788;2024-02-14T02:35:41;21.17;;;16.45;;
54123;SDS011;55741;53.252;5.788;2024-02-14T02:38:11;17.30;;;14.23;;
54123;SDS011;55741;53.252;5.788;2024-02-14T02:40:39;22.20;;;16.60;;
54123;SDS011;55741;53.252;5.788;2024-02-14T02:43:07;20.13;;;15.77;;
54123;SDS011;55741;53.252;5.788;2024-02-14T02:45:34;18.10;;;14.68;;
54123;SDS011;55741;53.252;5.788;2024-02-14T02:48:02;21.20;;;16.30;;
54123;SDS011;55741;53.252;5.788;2024-02-14T02:50:30;20.30;;;15.85;;
54123;SDS011;55741;53.252;5.788;2024-02-14T02:52:57;19.15;;;14.27;;
54123;SDS011;55741;53.252;5.788;2024-02-14T02:55:24;22.83;;;16.38;;
54123;SDS011;55741;53.252;5.788;2024-02-14T02:57:53;20.98;;;15.80;;
54123;SDS011;55741;53.252;5.788;2024-02-14T03:00:20;19.05;;;14.90;;
54123;SDS011;55741;53.252;5.788;2024-02-14T03:02:48;19.70;;;15.40;;
54123;SDS011;55741;53.252;5.788;2024-02-14T03:05:16;17.48;;;13.43;;
54123;SDS011;55741;53.252;5.788;2024-02-14T03:07:50;18.85;;;14.75;;
54123;SDS011;55741;53.252;5.788;2024-02-14T03:10:17;20.55;;;14.50;;
54123;SDS011;55741;53.252;5.788;2024-02-14T03:12:46;22.23;;;14.20;;
54123;SDS011;55741;53.252;5.788;2024-02-14T03:15:14;21.42;;;14.32;;
54123;SDS011;55741;53.252;5.788;2024-02-14T03:17:42;21.50;;;14.43;;
54123;SDS011;55741;53.252;5.788;2024-02-14T03:20:11;16.73;;;12.02;;
54123;SDS011;55741;53.252;5.788;2024-02-14T03:22:42;14.25;;;10.10;;
54123;SDS011;55741;53.252;5.788;2024-02-14T03:25:16;12.25;;;8.77;;
54123;SDS011;55741;53.252;5.788;2024-02-14T03:27:44;11.88;;;9.52;;
54123;SDS011;55741;53.252;5.788;2024-02-14T03:30:16;14.57;;;9.18;;
54123;SDS011;55741;53.252;5.788;2024-02-14T03:32:43;18.17;;;9.65;;
54123;SDS011;55741;53.252;5.788;2024-02-14T03:35:14;15.35;;;9.15;;
54123;SDS011;55741;53.252;5.788;2024-02-14T03:37:43;18.27;;;8.90;;
54123;SDS011;55741;53.252;5.788;2024-02-14T03:40:14;16.80;;;7.63;;
54123;SDS011;55741;53.252;5.788;2024-02-14T03:42:42;16.42;;;7.70;;
54123;SDS011;55741;53.252;5.788;2024-02-14T03:45:09;12.85;;;7.60;;
54123;SDS011;55741;53.252;5.788;2024-02-14T03:47:37;17.65;;;7.93;;
54123;SDS011;55741;53.252;5.788;2024-02-14T03:50:08;19.92;;;9.52;;
54123;SDS011;55741;53.252;5.788;2024-02-14T03:52:35;17.52;;;8.23;;
54123;SDS011;55741;53.252;5.788;2024-02-14T03:55:04;17.88;;;7.47;;
54123;SDS011;55741;53.252;5.788;2024-02-14T03:57:32;16.33;;;6.97;;
54123;SDS011;55741;53.252;5.788;2024-02-14T04:00:02;13.10;;;6.18;;
54123;SDS011;55741;53.252;5.788;2024-02-14T04:02:30;14.77;;;7.13;;
54123;SDS011;55741;53.252;5.788;2024-02-14T04:04:58;16.80;;;6.47;;
54123;SDS011;55741;53.252;5.788;2024-02-14T04:07:26;21.67;;;7.28;;
54123;SDS011;55741;53.252;5.788;2024-02-14T04:09:53;15.20;;;6.60;;
54123;SDS011;55741;53.252;5.788;2024-02-14T04:12:21;18.15;;;6.85;;
54123;SDS011;55741;53.252;5.788;2024-02-14T04:14:48;18.70;;;6.28;;
54123;SDS011;55741;53.252;5.788;2024-02-14T04:17:16;16.98;;;6.15;;
54123;SDS011;55741;53.252;5.788;2024-02-14T04:19:43;18.13;;;6.80;;
54123;SDS011;55741;53.252;5.788;2024-02-14T04:22:10;16.98;;;5.93;;
54123;SDS011;55741;53.252;5.788;2024-02-14T04:24:38;26.70;;;7.00;;
54123;SDS011;55741;53.252;5.788;2024-02-14T04:27:05;28.98;;;7.50;;
54123;SDS011;55741;53.252;5.788;2024-02-14T04:29:33;26.08;;;7.65;;
54123;SDS011;55741;53.252;5.788;2024-02-14T04:32:02;25.67;;;8.38;;
54123;SDS011;55741;53.252;5.788;2024-02-14T04:34:30;21.58;;;7.50;;
54123;SDS011;55741;53.252;5.788;2024-02-14T04:36:58;20.00;;;7.95;;
54123;SDS011;55741;53.252;5.788;2024-02-14T04:39:25;30.83;;;8.77;;
54123;SDS011;55741;53.252;5.788;2024-02-14T04:41:53;31.73;;;8.82;;
54123;SDS011;55741;53.252;5.788;2024-02-14T04:44:21;29.38;;;8.57;;
54123;SDS011;55741;53.252;5.788;2024-02-14T04:46:48;37.53;;;8.95;;
54123;SDS011;55741;53.252;5.788;2024-02-14T04:49:16;31.70;;;8.52;;
54123;SDS011;55741;53.252;5.788;2024-02-14T04:51:43;50.00;;;9.13;;
54123;SDS011;55741;53.252;5.788;2024-02-14T04:54:11;32.85;;;10.25;;
54123;SDS011;55741;53.252;5.788;2024-02-14T04:56:40;31.45;;;9.85;;
54123;SDS011;55741;53.252;5.788;2024-02-14T04:59:08;56.85;;;11.98;;
54123;SDS011;55741;53.252;5.788;2024-02-14T05:01:35;42.50;;;10.80;;
54123;SDS011;55741;53.252;5.788;2024-02-14T05:04:03;42.38;;;9.55;;
54123;SDS011;55741;53.252;5.788;2024-02-14T05:06:31;39.60;;;10.15;;
54123;SDS011;55741;53.252;5.788;2024-02-14T05:08:58;33.13;;;7.53;;
54123;SDS011;55741;53.252;5.788;2024-02-14T05:11:26;34.42;;;7.18;;
54123;SDS011;55741;53.252;5.788;2024-02-14T05:13:53;22.77;;;5.75;;
54123;SDS011;55741;53.252;5.788;2024-02-14T05:16:21;22.58;;;6.07;;
54123;SDS011;55741;53.252;5.788;2024-02-14T05:18:49;31.98;;;7.15;;
54123;SDS011;55741;53.252;5.788;2024-02-14T05:21:19;35.50;;;8.80;;
54123;SDS011;55741;53.252;5.788;2024-02-14T05:23:47;38.67;;;8.73;;
54123;SDS011;55741;53.252;5.788;2024-02-14T05:26:15;54.28;;;10.10;;
54123;SDS011;55741;53.252;5.788;2024-02-14T05:28:42;51.83;;;8.98;;
54123;SDS011;55741;53.252;5.788;2024-02-14T05:31:10;56.83;;;9.98;;
54123;SDS011;55741;53.252;5.788;2024-02-14T05:33:37;68.85;;;10.60;;
54123;SDS011;55741;53.252;5.788;2024-02-14T05:36:05;56.65;;;9.15;;
54123;SDS011;55741;53.252;5.788;2024-02-14T05:38:32;61.50;;;9.48;;
54123;SDS011;55741;53.252;5.788;2024-02-14T05:41:01;69.07;;;10.50;;
54123;SDS011;55741;53.252;5.788;2024-02-14T05:43:28;65.60;;;11.10;;
54123;SDS011;55741;53.252;5.788;2024-02-14T05:45:56;49.83;;;8.95;;
54123;SDS011;55741;53.252;5.788;2024-02-14T05:48:23;62.47;;;9.23;;
54123;SDS011;55741;53.252;5.788;2024-02-14T05:50:51;54.88;;;9.35;;
54123;SDS011;55741;53.252;5.788;2024-02-14T05:53:19;86.28;;;10.63;;
54123;SDS011;55741;53.252;5.788;2024-02-14T05:55:47;60.20;;;11.02;;
54123;SDS011;55741;53.252;5.788;2024-02-14T05:58:14;61.78;;;11.63;;
54123;SDS011;55741;53.252;5.788;2024-02-14T06:00:42;67.82;;;10.50;;
54123;SDS011;55741;53.252;5.788;2024-02-14T06:03:10;56.15;;;10.45;;
54123;SDS011;55741;53.252;5.788;2024-02-14T06:05:38;56.05;;;10.77;;
54123;SDS011;55741;53.252;5.788;2024-02-14T06:08:05;70.95;;;11.07;;
54123;SDS011;55741;53.252;5.788;2024-02-14T06:10:33;58.65;;;9.63;;
54123;SDS011;55741;53.252;5.788;2024-02-14T06:13:01;64.97;;;9.73;;
54123;SDS011;55741;53.252;5.788;2024-02-14T06:15:28;63.47;;;9.23;;
54123;SDS011;55741;53.252;5.788;2024-02-14T06:17:56;63.22;;;10.32;;
54123;SDS011;55741;53.252;5.788;2024-02-14T06:20:24;69.97;;;9.77;;
54123;SDS011;55741;53.252;5.788;2024-02-14T06:22:51;60.90;;;9.85;;
54123;SDS011;55741;53.252;5.788;2024-02-14T06:25:19;59.97;;;9.65;;
54123;SDS011;55741;53.252;5.788;2024-02-14T06:27:46;63.03;;;10.20;;
54123;SDS011;55741;53.252;5.788;2024-02-14T06:30:14;62.28;;;10.45;;
54123;SDS011;55741;53.252;5.788;2024-02-14T06:32:43;71.22;;;10.73;;
54123;SDS011;55741;53.252;5.788;2024-02-14T06:35:11;78.97;;;10.02;;
54123;SDS011;55741;53.252;5.788;2024-02-14T06:37:38;78.25;;;11.70;;
54123;SDS011;55741;53.252;5.788;2024-02-14T06:40:06;82.90;;;10.70;;
54123;SDS011;55741;53.252;5.788;2024-02-14T06:42:35;66.07;;;11.07;;
54123;SDS011;55741;53.252;5.788;2024-02-14T06:45:03;69.68;;;10.38;;
54123;SDS011;55741;53.252;5.788;2024-02-14T06:47:30;69.32;;;9.90;;
54123;SDS011;55741;53.252;5.788;2024-02-14T06:49:58;77.72;;;12.10;;
54123;SDS011;55741;53.252;5.788;2024-02-14T06:52:26;72.13;;;10.00;;
54123;SDS011;55741;53.252;5.788;2024-02-14T06:54:53;82.53;;;11.30;;
54123;SDS011;55741;53.252;5.788;2024-02-14T06:57:21;69.70;;;10.35;;
54123;SDS011;55741;53.252;5.788;2024-02-14T06:59:48;68.07;;;11.10;;
54123;SDS011;55741;53.252;5.788;2024-02-14T07:02:16;73.07;;;9.77;;
54123;SDS011;55741;53.252;5.788;2024-02-14T07:04:43;87.03;;;10.88;;
54123;SDS011;55741;53.252;5.788;2024-02-14T07:07:11;59.47;;;8.80;;
54123;SDS011;55741;53.252;5.788;2024-02-14T07:09:38;75.13;;;9.90;;
54123;SDS011;55741;53.252;5.788;2024-02-14T07:12:06;83.18;;;12.18;;
54123;SDS011;55741;53.252;5.788;2024-02-14T07:14:33;76.07;;;9.90;;
54123;SDS011;55741;53.252;5.788;2024-02-14T07:17:01;82.60;;;13.07;;
54123;SDS011;55741;53.252;5.788;2024-02-14T07:19:29;73.07;;;11.35;;
54123;SDS011;55741;53.252;5.788;2024-02-14T07:21:56;75.78;;;11.68;;
54123;SDS011;55741;53.252;5.788;2024-02-14T07:24:23;84.07;;;12.35;;
54123;SDS011;55741;53.252;5.788;2024-02-14T07:26:51;71.85;;;10.30;;
54123;SDS011;55741;53.252;5.788;2024-02-14T07:29:18;78.72;;;10.18;;
54123;SDS011;55741;53.252;5.788;2024-02-14T07:31:46;64.03;;;11.73;;
54123;SDS011;55741;53.252;5.788;2024-02-14T07:34:14;67.63;;;10.75;;
54123;SDS011;55741;53.252;5.788;2024-02-14T07:36:41;76.95;;;10.07;;
54123;SDS011;55741;53.252;5.788;2024-02-14T07:39:13;62.45;;;10.10;;
54123;SDS011;55741;53.252;5.788;2024-02-14T07:41:40;64.30;;;9.98;;
54123;SDS011;55741;53.252;5.788;2024-02-14T07:44:08;61.08;;;9.20;;
54123;SDS011;55741;53.252;5.788;2024-02-14T07:46:35;58.13;;;8.23;;
54123;SDS011;55741;53.252;5.788;2024-02-14T07:49:04;73.18;;;12.75;;
54123;SDS011;55741;53.252;5.788;2024-02-14T07:51:33;66.53;;;12.82;;
54123;SDS011;55741;53.252;5.788;2024-02-14T07:54:03;67.88;;;9.30;;
54123;SDS011;55741;53.252;5.788;2024-02-14T07:56:31;61.60;;;10.10;;
54123;SDS011;55741;53.252;5.788;2024-02-14T07:58:59;63.80;;;12.13;;
54123;SDS011;55741;53.252;5.788;2024-02-14T08:01:26;51.47;;;10.00;;
54123;SDS011;55741;53.252;5.788;2024-02-14T08:03:55;54.70;;;9.68;;
54123;SDS011;55741;53.252;5.788;2024-02-14T08:06:22;72.28;;;10.98;;
54123;SDS011;55741;53.252;5.788;2024-02-14T08:08:50;58.35;;;10.27;;
54123;SDS011;55741;53.252;5.788;2024-02-14T08:11:21;60.28;;;9.77;;
54123;SDS011;55741;53.252;5.788;2024-02-14T08:13:48;58.42;;;9.82;;
54123;SDS011;55741;53.252;5.788;2024-02-14T08:16:15;59.42;;;10.93;;
54123;SDS011;55741;53.252;5.788;2024-02-14T08:18:43;63.95;;;10.32;;
54123;SDS011;55741;53.252;5.788;2024-02-14T08:21:11;53.28;;;10.15;;
54123;SDS011;55741;53.252;5.788;2024-02-14T08:23:39;51.75;;;9.32;;
54123;SDS011;55741;53.252;5.788;2024-02-14T08:26:08;55.40;;;9.63;;
54123;SDS011;55741;53.252;5.788;2024-02-14T08:28:37;51.45;;;9.75;;
54123;SDS011;55741;53.252;5.788;2024-02-14T08:31:11;56.25;;;9.75;;
54123;SDS011;55741;53.252;5.788;2024-02-14T08:33:39;51.88;;;9.55;;
54123;SDS011;55741;53.252;5.788;2024-02-14T08:36:06;60.67;;;10.15;;
54123;SDS011;55741;53.252;5.788;2024-02-14T08:38:34;65.75;;;11.20;;
54123;SDS011;55741;53.252;5.788;2024-02-14T08:41:02;54.63;;;11.85;;
54123;SDS011;55741;53.252;5.788;2024-02-14T08:43:30;64.30;;;12.57;;
54123;SDS011;55741;53.252;5.788;2024-02-14T08:45:58;59.85;;;12.63;;
54123;SDS011;55741;53.252;5.788;2024-02-14T08:48:26;57.97;;;11.93;;
54123;SDS011;55741;53.252;5.788;2024-02-14T08:50:55;56.83;;;11.65;;
54123;SDS011;55741;53.252;5.788;2024-02-14T08:53:23;57.08;;;10.93;;
54123;SDS011;55741;53.252;5.788;2024-02-14T08:55:50;54.95;;;11.60;;
54123;SDS011;55741;53.252;5.788;2024-02-14T08:58:18;59.53;;;11.68;;
54123;SDS011;55741;53.252;5.788;2024-02-14T09:00:46;47.88;;;10.73;;
54123;SDS011;55741;53.252;5.788;2024-02-14T09:03:13;54.20;;;9.82;;
54123;SDS011;55741;53.252;5.788;2024-02-14T09:05:41;59.67;;;12.40;;
54123;SDS011;55741;53.252;5.788;2024-02-14T09:08:08;54.83;;;10.85;;
54123;SDS011;55741;53.252;5.788;2024-02-14T09:10:36;42.40;;;10.20;;
54123;SDS011;55741;53.252;5.788;2024-02-14T09:13:04;51.30;;;9.48;;
54123;SDS011;55741;53.252;5.788;2024-02-14T09:15:34;59.33;;;11.60;;
54123;SDS011;55741;53.252;5.788;2024-02-14T09:18:01;55.38;;;10.93;;
54123;SDS011;55741;53.252;5.788;2024-02-14T09:20:30;46.50;;;10.93;;
54123;SDS011;55741;53.252;5.788;2024-02-14T09:22:57;43.50;;;9.70;;
54123;SDS011;55741;53.252;5.788;2024-02-14T09:25:25;48.72;;;10.10;;
54123;SDS011;55741;53.252;5.788;2024-02-14T09:27:52;47.92;;;10.77;;
54123;SDS011;55741;53.252;5.788;2024-02-14T09:30:20;43.88;;;10.02;;
54123;SDS011;55741;53.252;5.788;2024-02-14T09:32:48;37.22;;;9.82;;
54123;SDS011;55741;53.252;5.788;2024-02-14T09:35:17;58.47;;;12.65;;
54123;SDS011;55741;53.252;5.788;2024-02-14T09:37:45;38.42;;;8.68;;
54123;SDS011;55741;53.252;5.788;2024-02-14T09:40:12;30.92;;;10.15;;
54123;SDS011;55741;53.252;5.788;2024-02-14T09:42:43;48.20;;;9.32;;
54123;SDS011;55741;53.252;5.788;2024-02-14T09:45:12;45.53;;;10.75;;
54123;SDS011;55741;53.252;5.788;2024-02-14T09:47:41;42.15;;;10.95;;
54123;SDS011;55741;53.252;5.788;2024-02-14T09:50:10;36.10;;;9.75;;
54123;SDS011;55741;53.252;5.788;2024-02-14T09:52:39;39.47;;;9.90;;
54123;SDS011;55741;53.252;5.788;2024-02-14T09:55:09;44.65;;;9.98;;
54123;SDS011;55741;53.252;5.788;2024-02-14T09:57:38;42.58;;;9.80;;
54123;SDS011;55741;53.252;5.788;2024-02-14T10:00:11;30.35;;;8.80;;
54123;SDS011;55741;53.252;5.788;2024-02-14T10:02:41;34.13;;;7.72;;
54123;SDS011;55741;53.252;5.788;2024-02-14T10:05:09;29.65;;;7.25;;
54123;SDS011;55741;53.252;5.788;2024-02-14T10:07:43;33.83;;;8.40;;
54123;SDS011;55741;53.252;5.788;2024-02-14T10:10:11;29.17;;;8.77;;
54123;SDS011;55741;53.252;5.788;2024-02-14T10:12:41;40.28;;;9.32;;
54123;SDS011;55741;53.252;5.788;2024-02-14T10:15:09;39.05;;;9.48;;
54123;SDS011;55741;53.252;5.788;2024-02-14T10:17:38;33.88;;;8.45;;
54123;SDS011;55741;53.252;5.788;2024-02-14T10:20:07;33.47;;;9.90;;
54123;SDS011;55741;53.252;5.788;2024-02-14T10:22:37;30.13;;;9.85;;
54123;SDS011;55741;53.252;5.788;2024-02-14T10:25:05;41.63;;;10.38;;
54123;SDS011;55741;53.252;5.788;2024-02-14T10:27:37;29.90;;;8.88;;
54123;SDS011;55741;53.252;5.788;2024-02-14T10:30:05;35.30;;;9.35;;
54123;SDS011;55741;53.252;5.788;2024-02-14T10:32:37;43.63;;;11.95;;
54123;SDS011;55741;53.252;5.788;2024-02-14T10:35:05;33.22;;;11.00;;
54123;SDS011;55741;53.252;5.788;2024-02-14T10:37:35;35.65;;;10.38;;
54123;SDS011;55741;53.252;5.788;2024-02-14T10:40:03;39.20;;;12.18;;
54123;SDS011;55741;53.252;5.788;2024-02-14T10:42:32;40.40;;;11.68;;
54123;SDS011;55741;53.252;5.788;2024-02-14T10:45:00;49.05;;;11.02;;
54123;SDS011;55741;53.252;5.788;2024-02-14T10:47:31;35.72;;;10.23;;
54123;SDS011;55741;53.252;5.788;2024-02-14T10:50:04;46.30;;;10.55;;
54123;SDS011;55741;53.252;5.788;2024-02-14T10:52:34;36.58;;;8.90;;
54123;SDS011;55741;53.252;5.788;2024-02-14T10:55:03;42.22;;;8.80;;
54123;SDS011;55741;53.252;5.788;2024-02-14T10:57:32;38.08;;;9.77;;
54123;SDS011;55741;53.252;5.788;2024-02-14T11:00:05;40.17;;;9.73;;
54123;SDS011;55741;53.252;5.788;2024-02-14T11:02:40;35.08;;;9.25;;
54123;SDS011;55741;53.252;5.788;2024-02-14T11:05:12;28.10;;;8.23;;
54123;SDS011;55741;53.252;5.788;2024-02-14T11:07:45;28.90;;;7.75;;
54123;SDS011;55741;53.252;5.788;2024-02-14T11:10:14;23.63;;;7.35;;
54123;SDS011;55741;53.252;5.788;2024-02-14T11:12:42;31.23;;;7.78;;
54123;SDS011;55741;53.252;5.788;2024-02-14T11:17:43;28.13;;;7.32;;
54123;SDS011;55741;53.252;5.788;2024-02-14T11:25:31;27.13;;;8.70;;
54123;SDS011;55741;53.252;5.788;2024-02-14T11:28:11;29.92;;;9.18;;
54123;SDS011;55741;53.252;5.788;2024-02-14T11:30:43;32.75;;;9.25;;
54123;SDS011;55741;53.252;5.788;2024-02-14T11:33:15;24.95;;;7.53;;
54123;SDS011;55741;53.252;5.788;2024-02-14T11:35:51;33.65;;;8.45;;
54123;SDS011;55741;53.252;5.788;2024-02-14T11:38:23;26.85;;;7.90;;
54123;SDS011;55741;53.252;5.788;2024-02-14T11:40:55;18.92;;;7.03;;
54123;SDS011;55741;53.252;5.788;2024-02-14T11:43:23;26.08;;;8.20;;
54123;SDS011;55741;53.252;5.788;2024-02-14T11:45:51;22.45;;;7.82;;
54123;SDS011;55741;53.252;5.788;2024-02-14T11:48:19;28.50;;;8.32;;
54123;SDS011;55741;53.252;5.788;2024-02-14T11:50:48;31.50;;;8.43;;
54123;SDS011;55741;53.252;5.788;2024-02-14T11:53:15;30.05;;;7.32;;
54123;SDS011;55741;53.252;5.788;2024-02-14T11:55:45;21.52;;;6.18;;
54123;SDS011;55741;53.252;5.788;2024-02-14T11:58:16;20.85;;;6.95;;
54123;SDS011;55741;53.252;5.788;2024-02-14T12:00:45;22.27;;;6.63;;
54123;SDS011;55741;53.252;5.788;2024-02-14T12:03:17;24.88;;;6.78;;
54123;SDS011;55741;53.252;5.788;2024-02-14T12:05:48;35.40;;;9.32;;
54123;SDS011;55741;53.252;5.788;2024-02-14T12:08:17;31.50;;;7.68;;
54123;SDS011;55741;53.252;5.788;2024-02-14T12:10:45;23.20;;;7.20;;
54123;SDS011;55741;53.252;5.788;2024-02-14T12:13:20;27.85;;;7.43;;
54123;SDS011;55741;53.252;5.788;2024-02-14T12:15:49;24.38;;;8.35;;
54123;SDS011;55741;53.252;5.788;2024-02-14T12:18:18;24.45;;;7.43;;
54123;SDS011;55741;53.252;5.788;2024-02-14T12:20:47;16.25;;;7.38;;
54123;SDS011;55741;53.252;5.788;2024-02-14T12:23:18;21.85;;;7.60;;
54123;SDS011;55741;53.252;5.788;2024-02-14T12:25:47;19.42;;;7.68;;
54123;SDS011;55741;53.252;5.788;2024-02-14T12:28:15;18.55;;;8.32;;
54123;SDS011;55741;53.252;5.788;2024-02-14T12:30:46;23.17;;;8.95;;
54123;SDS011;55741;53.252;5.788;2024-02-14T12:33:16;20.40;;;8.40;;
54123;SDS011;55741;53.252;5.788;2024-02-14T12:35:44;28.98;;;9.35;;
54123;SDS011;55741;53.252;5.788;2024-02-14T12:38:13;22.90;;;9.48;;
54123;SDS011;55741;53.252;5.788;2024-02-14T12:40:43;25.38;;;8.75;;
54123;SDS011;55741;53.252;5.788;2024-02-14T12:43:12;21.60;;;8.82;;
54123;SDS011;55741;53.252;5.788;2024-02-14T12:45:41;27.05;;;11.43;;
54123;SDS011;55741;53.252;5.788;2024-02-14T12:48:09;24.20;;;8.90;;
54123;SDS011;55741;53.252;5.788;2024-02-14T12:50:38;31.90;;;10.35;;
54123;SDS011;55741;53.252;5.788;2024-02-14T12:53:06;27.15;;;9.02;;
54123;SDS011;55741;53.252;5.788;2024-02-14T12:55:34;27.08;;;10.35;;
54123;SDS011;55741;53.252;5.788;2024-02-14T12:58:02;28.25;;;10.05;;
54123;SDS011;55741;53.252;5.788;2024-02-14T13:00:30;27.02;;;10.27;;
54123;SDS011;55741;53.252;5.788;2024-02-14T13:03:01;27.40;;;10.23;;
54123;SDS011;55741;53.252;5.788;2024-02-14T13:05:28;23.70;;;9.60;;
54123;SDS011;55741;53.252;5.788;2024-02-14T13:07:56;24.48;;;10.15;;
54123;SDS011;55741;53.252;5.788;2024-02-14T13:10:23;25.17;;;9.15;;
54123;SDS011;55741;53.252;5.788;2024-02-14T13:12:51;27.88;;;9.75;;
54123;SDS011;55741;53.252;5.788;2024-02-14T13:15:17;28.08;;;9.80;;
54123;SDS011;55741;53.252;5.788;2024-02-14T13:17:43;32.28;;;10.63;;
54123;SDS011;55741;53.252;5.788;2024-02-14T13:20:10;31.85;;;10.80;;
54123;SDS011;55741;53.252;5.788;2024-02-14T13:22:36;32.97;;;10.40;;
54123;SDS011;55741;53.252;5.788;2024-02-14T13:25:02;27.63;;;11.98;;
54123;SDS011;55741;53.252;5.788;2024-02-14T13:27:30;25.83;;;9.95;;
54123;SDS011;55741;53.252;5.788;2024-02-14T13:29:56;29.00;;;10.38;;
54123;SDS011;55741;53.252;5.788;2024-02-14T13:32:22;27.02;;;10.27;;
54123;SDS011;55741;53.252;5.788;2024-02-14T13:34:49;32.33;;;9.65;;
54123;SDS011;55741;53.252;5.788;2024-02-14T13:37:14;36.58;;;10.18;;
54123;SDS011;55741;53.252;5.788;2024-02-14T13:39:41;24.83;;;10.02;;
54123;SDS011;55741;53.252;5.788;2024-02-14T13:42:07;27.27;;;10.23;;
54123;SDS011;55741;53.252;5.788;2024-02-14T13:44:33;28.20;;;10.80;;
54123;SDS011;55741;53.252;5.788;2024-02-14T13:46:59;26.75;;;9.52;;
54123;SDS011;55741;53.252;5.788;2024-02-14T13:49:25;21.00;;;8.52;;
54123;SDS011;55741;53.252;5.788;2024-02-14T13:51:52;24.23;;;9.35;;
54123;SDS011;55741;53.252;5.788;2024-02-14T13:54:18;18.13;;;7.50;;
54123;SDS011;55741;53.252;5.788;2024-02-14T13:56:45;14.55;;;7.50;;
54123;SDS011;55741;53.252;5.788;2024-02-14T13:59:11;16.88;;;8.15;;
54123;SDS011;55741;53.252;5.788;2024-02-14T14:01:37;16.95;;;7.28;;
54123;SDS011;55741;53.252;5.788;2024-02-14T14:04:03;15.85;;;7.70;;
54123;SDS011;55741;53.252;5.788;2024-02-14T14:06:29;12.18;;;7.20;;
54123;SDS011;55741;53.252;5.788;2024-02-14T14:08:56;12.90;;;7.10;;
54123;SDS011;55741;53.252;5.788;2024-02-14T14:11:22;15.82;;;7.45;;
54123;SDS011;55741;53.252;5.788;2024-02-14T14:13:49;11.50;;;7.32;;
54123;SDS011;55741;53.252;5.788;2024-02-14T14:16:17;12.73;;;7.70;;
54123;SDS011;55741;53.252;5.788;2024-02-14T14:18:50;14.05;;;7.68;;
54123;SDS011;55741;53.252;5.788;2024-02-14T14:21:18;15.18;;;7.53;;
54123;SDS011;55741;53.252;5.788;2024-02-14T14:23:45;13.27;;;8.02;;
54123;SDS011;55741;53.252;5.788;2024-02-14T14:26:14;15.68;;;8.48;;
54123;SDS011;55741;53.252;5.788;2024-02-14T14:28:42;17.52;;;8.18;;
54123;SDS011;55741;53.252;5.788;2024-02-14T14:31:09;17.60;;;8.75;;
54123;SDS011;55741;53.252;5.788;2024-02-14T14:33:38;13.82;;;7.68;;
54123;SDS011;55741;53.252;5.788;2024-02-14T14:36:05;17.20;;;8.38;;
54123;SDS011;55741;53.252;5.788;2024-02-14T14:38:33;13.98;;;8.25;;
54123;SDS011;55741;53.252;5.788;2024-02-14T14:41:01;17.60;;;8.55;;